Stringtown, Iowa
Current Conditions -  °F | °C
As of 11:15 AM on Friday 19 Dec 2014 (Local Time) from KCSQ Reporting Station
Haze Haze  
Wind Chill: -5°   Ceiling: 600
Heat Index: -1°   Visibility: 4mi
Dew Point: -1°   Wind: 7mph
Humidity: 100%   Direction: 160°SSE
Pressure: 30.24"   Gusts: NA
Location:  40.8856°N, 94.5654°W
Report Text: KCSQ 191715Z AUTO 16006KT 4SM BR OVC006 M01/M01 A3024 RMK AO2
Loading
Personal Weather Stations






























Interactive Weather Map New forecast layout! Learn more

10-Day Weather Forecast

Advertisements
Track Severe Weather on mobile